createdAt,value
2019-05-07T00:02:03.012Z,5.60
2019-05-07T00:04:29.840Z,5.60
2019-05-07T00:06:56.655Z,5.50
2019-05-07T00:09:23.589Z,5.30
2019-05-07T00:11:50.361Z,5.20
2019-05-07T00:14:17.193Z,5.20
2019-05-07T00:16:43.968Z,5.10
2019-05-07T00:19:12.817Z,5.00
2019-05-07T00:21:39.448Z,5.00
2019-05-07T00:24:07.973Z,5.00
2019-05-07T00:26:34.789Z,4.90
2019-05-07T00:29:02.279Z,4.90
2019-05-07T00:31:29.104Z,5.00
2019-05-07T00:33:55.945Z,4.90
2019-05-07T00:36:41.948Z,4.90
2019-05-07T00:39:13.312Z,4.90
2019-05-07T00:41:47.940Z,5.00
2019-05-07T00:44:16.567Z,4.90
2019-05-07T00:46:43.355Z,4.80
2019-05-07T00:49:12.568Z,4.80
2019-05-07T00:51:38.819Z,4.70
2019-05-07T00:54:06.673Z,4.70
2019-05-07T00:56:33.461Z,4.60
2019-05-07T00:59:02.251Z,4.50
2019-05-07T01:01:28.882Z,4.50
2019-05-07T01:03:55.740Z,4.40
2019-05-07T01:06:24.577Z,4.30
2019-05-07T01:08:52.497Z,4.30
2019-05-07T01:11:19.450Z,4.20
2019-05-07T01:13:46.396Z,4.20
2019-05-07T01:16:13.180Z,4.10
2019-05-07T01:18:42.109Z,4.20
2019-05-07T01:21:08.864Z,4.20
2019-05-07T01:23:35.644Z,4.20
2019-05-07T01:26:03.053Z,4.10
2019-05-07T01:28:29.868Z,4.00
2019-05-07T01:30:56.648Z,4.00
2019-05-07T01:33:25.337Z,3.90
2019-05-07T01:36:02.968Z,3.90
2019-05-07T01:38:29.788Z,4.00
2019-05-07T01:40:56.636Z,4.00
2019-05-07T01:43:23.428Z,4.00
2019-05-07T01:45:52.897Z,4.00
2019-05-07T01:48:19.053Z,4.00
2019-05-07T01:50:45.892Z,4.00
2019-05-07T01:53:12.713Z,4.00
2019-05-07T01:55:39.536Z,4.00
2019-05-07T01:58:06.364Z,3.90
2019-05-07T02:00:33.468Z,3.90
2019-05-07T02:03:02.841Z,3.90
2019-05-07T02:05:32.587Z,3.90
2019-05-07T02:08:02.923Z,4.00
2019-05-07T02:10:34.588Z,4.00
2019-05-07T02:13:02.253Z,4.00
2019-05-07T02:15:29.373Z,4.00
2019-05-07T02:17:56.160Z,3.90
2019-05-07T02:20:23.064Z,3.90
2019-05-07T02:22:49.847Z,3.90
2019-05-07T02:25:16.626Z,3.80
2019-05-07T02:27:43.456Z,3.80
2019-05-07T02:30:10.393Z,3.70
2019-05-07T02:32:37.185Z,3.70
2019-05-07T02:35:04.625Z,3.60
2019-05-07T02:37:46.500Z,3.70
2019-05-07T02:40:14.171Z,3.60
2019-05-07T02:42:44.056Z,3.60
2019-05-07T02:45:26.996Z,3.50
2019-05-07T02:47:53.830Z,3.40
2019-05-07T02:50:33.034Z,3.50
2019-05-07T02:53:18.149Z,3.50
2019-05-07T02:55:47.281Z,3.50
2019-05-07T02:58:14.118Z,3.50
2019-05-07T03:00:43.403Z,3.40
2019-05-07T03:03:09.658Z,3.50
2019-05-07T03:05:36.766Z,3.50
2019-05-07T03:08:03.810Z,3.40
2019-05-07T03:10:33.614Z,3.40
2019-05-07T03:12:59.309Z,3.30
2019-05-07T03:15:26.365Z,3.30
2019-05-07T03:17:53.771Z,3.30
2019-05-07T03:20:33.395Z,3.30
2019-05-07T03:23:03.157Z,3.20
2019-05-07T03:25:33.820Z,3.10
2019-05-07T03:28:00.022Z,3.10
2019-05-07T03:30:28.665Z,3.10
2019-05-07T03:33:00.338Z,3.20
2019-05-07T03:35:28.977Z,3.10
2019-05-07T03:37:56.161Z,2.90
2019-05-07T03:40:23.193Z,2.90
2019-05-07T03:42:53.186Z,3.00
2019-05-07T03:45:26.920Z,2.90
2019-05-07T03:47:55.517Z,2.90
2019-05-07T03:50:23.372Z,2.90
2019-05-07T03:52:50.337Z,2.80
2019-05-07T03:55:17.138Z,2.80
2019-05-07T03:57:44.151Z,2.90
2019-05-07T04:00:13.027Z,2.80
2019-05-07T04:02:43.385Z,2.90
2019-05-07T04:05:09.582Z,2.80
2019-05-07T04:07:38.318Z,2.80
2019-05-07T04:10:09.878Z,2.80
2019-05-07T04:12:34.811Z,2.80
2019-05-07T04:15:03.462Z,2.70
2019-05-07T04:17:33.581Z,2.80
2019-05-07T04:19:58.932Z,2.90
2019-05-07T04:22:28.938Z,2.90
2019-05-07T04:25:05.401Z,3.00
2019-05-07T04:27:34.017Z,3.00
2019-05-07T04:30:03.863Z,3.00
2019-05-07T04:32:33.405Z,3.20
2019-05-07T04:35:03.830Z,3.30
2019-05-07T04:37:33.135Z,3.30
2019-05-07T04:39:59.501Z,3.40
2019-05-07T04:42:26.337Z,3.40
2019-05-07T04:44:53.992Z,3.50
2019-05-07T04:47:36.977Z,3.50
2019-05-07T04:49:49.863Z,3.50
2019-05-07T04:52:18.489Z,3.50
2019-05-07T04:54:45.326Z,3.60
2019-05-07T04:57:26.968Z,3.60
2019-05-07T04:59:54.944Z,3.80
2019-05-07T05:02:23.883Z,4.20
2019-05-07T05:04:53.019Z,4.40
2019-05-07T05:07:19.452Z,4.80
2019-05-07T05:09:46.219Z,5.20
2019-05-07T05:12:13.252Z,5.30
2019-05-07T05:14:43.217Z,5.60
2019-05-07T05:17:08.798Z,5.90
2019-05-07T05:19:35.637Z,6.00
2019-05-07T05:22:07.761Z,6.30
2019-05-07T05:24:36.397Z,6.20
2019-05-07T05:27:03.333Z,6.50
2019-05-07T05:29:32.321Z,6.80
2019-05-07T05:31:59.272Z,6.80
2019-05-07T05:34:26.052Z,6.80
2019-05-07T05:36:53.322Z,6.90
2019-05-07T05:39:22.349Z,6.90
2019-05-07T05:41:51.858Z,7.00
2019-05-07T05:44:26.332Z,7.20
2019-05-07T05:46:53.115Z,7.30
2019-05-07T05:49:19.929Z,7.20
2019-05-07T05:51:52.511Z,7.30
2019-05-07T05:54:33.045Z,7.50
2019-05-07T05:57:18.032Z,7.90
2019-05-07T06:00:02.534Z,8.20
2019-05-07T06:02:52.964Z,8.40
2019-05-07T06:05:36.244Z,8.60
2019-05-07T06:08:04.919Z,8.90
2019-05-07T06:10:36.317Z,9.00
2019-05-07T06:13:04.940Z,9.00
2019-05-07T06:15:33.579Z,9.00
2019-05-07T06:18:18.072Z,9.00
2019-05-07T06:20:44.785Z,9.10
2019-05-07T06:23:13.369Z,9.50
2019-05-07T06:25:42.827Z,9.50
2019-05-07T06:28:09.692Z,9.50
2019-05-07T06:30:36.594Z,9.90
2019-05-07T06:33:03.377Z,10.10
2019-05-07T06:35:32.325Z,10.30
2019-05-07T06:37:59.902Z,10.80
2019-05-07T06:40:37.270Z,11.20
2019-05-07T06:43:18.092Z,11.20
2019-05-07T06:45:51.755Z,11.30
2019-05-07T06:48:33.560Z,11.50
2019-05-07T06:50:59.028Z,11.50
2019-05-07T06:53:26.786Z,11.50
2019-05-07T06:55:53.620Z,11.90
2019-05-07T06:58:21.940Z,12.00
2019-05-07T07:00:52.750Z,12.20
2019-05-07T07:03:38.288Z,12.30
2019-05-07T07:06:06.937Z,12.30
2019-05-07T07:08:47.836Z,12.40
2019-05-07T07:11:19.257Z,12.40
2019-05-07T07:13:46.044Z,12.40
2019-05-07T07:16:12.940Z,12.60
2019-05-07T07:18:51.346Z,12.50
2019-05-07T07:21:08.810Z,12.30
2019-05-07T07:23:35.644Z,12.50
2019-05-07T07:26:03.267Z,12.50
2019-05-07T07:28:32.412Z,12.60
2019-05-07T07:31:17.324Z,12.60
2019-05-07T07:33:45.915Z,12.80
2019-05-07T07:36:12.797Z,13.00
2019-05-07T07:38:39.580Z,13.00
2019-05-07T07:41:22.094Z,12.60
2019-05-07T07:43:48.388Z,12.50
2019-05-07T07:46:16.657Z,12.20
2019-05-07T07:48:43.722Z,12.50
2019-05-07T07:51:10.659Z,12.80
2019-05-07T07:53:37.518Z,12.90
2019-05-07T07:56:23.158Z,12.90
2019-05-07T07:58:52.413Z,13.40
2019-05-07T08:01:22.576Z,13.70
2019-05-07T08:03:49.486Z,13.50
2019-05-07T08:06:16.304Z,13.80
2019-05-07T08:08:43.160Z,13.50
2019-05-07T08:11:09.945Z,13.20
2019-05-07T08:13:36.821Z,13.00
2019-05-07T08:16:03.721Z,12.80
2019-05-07T08:18:32.637Z,13.20
2019-05-07T08:20:59.249Z,13.70
2019-05-07T08:23:26.084Z,14.20
2019-05-07T08:25:52.867Z,14.80
2019-05-07T08:28:19.921Z,14.70
2019-05-07T08:31:06.065Z,14.20
2019-05-07T08:33:34.766Z,14.30
2019-05-07T08:36:09.113Z,14.50
2019-05-07T08:38:38.301Z,14.50
2019-05-07T08:41:05.149Z,14.20
2019-05-07T08:43:32.266Z,13.90
2019-05-07T08:46:16.544Z,13.50
2019-05-07T08:48:45.017Z,13.60
2019-05-07T08:51:12.000Z,13.00
2019-05-07T08:53:38.818Z,12.90
2019-05-07T08:56:05.594Z,13.00
2019-05-07T08:58:34.233Z,13.20
2019-05-07T09:01:02.980Z,12.80
2019-05-07T09:03:42.976Z,12.20
2019-05-07T09:06:11.765Z,11.70
2019-05-07T09:08:38.614Z,11.90
2019-05-07T09:11:05.391Z,12.00
2019-05-07T09:13:33.315Z,11.90
2019-05-07T09:16:02.422Z,11.80
2019-05-07T09:18:29.326Z,11.80
2019-05-07T09:20:56.184Z,12.10
2019-05-07T09:23:23.005Z,12.30
2019-05-07T09:25:52.271Z,12.40
2019-05-07T09:28:21.801Z,12.60
2019-05-07T09:30:52.292Z,12.50
2019-05-07T09:33:23.197Z,12.50
2019-05-07T09:35:52.874Z,12.70
2019-05-07T09:38:19.828Z,12.90
2019-05-07T09:40:46.609Z,12.80
2019-05-07T09:43:13.432Z,12.90
2019-05-07T09:45:42.128Z,12.80
2019-05-07T09:48:08.911Z,12.50
2019-05-07T09:50:35.701Z,12.40
2019-05-07T09:53:02.557Z,12.60
2019-05-07T09:55:29.308Z,12.80
2019-05-07T09:57:56.180Z,12.80
2019-05-07T10:00:24.580Z,12.40
2019-05-07T10:02:52.835Z,12.50
2019-05-07T10:05:20.184Z,12.50
2019-05-07T10:07:47.286Z,12.10
2019-05-07T10:10:14.396Z,12.30
2019-05-07T10:12:43.201Z,12.50
2019-05-07T10:15:12.096Z,12.90
2019-05-07T10:17:40.727Z,13.10
2019-05-07T10:20:19.368Z,13.60
2019-05-07T10:22:37.148Z,13.80
2019-05-07T10:25:04.992Z,13.70
2019-05-07T10:27:32.566Z,12.90
2019-05-07T10:30:01.782Z,12.90
2019-05-07T10:32:28.672Z,13.00
2019-05-07T10:34:55.460Z,13.10
2019-05-07T10:37:22.317Z,13.50
2019-05-07T10:39:49.136Z,13.70
2019-05-07T10:42:16.072Z,13.90
2019-05-07T10:44:47.496Z,14.00
2019-05-07T10:47:24.718Z,14.20
2019-05-07T10:50:11.861Z,14.50
2019-05-07T10:52:38.601Z,14.10
2019-05-07T10:55:05.537Z,13.40
2019-05-07T10:57:32.877Z,13.50
2019-05-07T10:59:59.864Z,13.60
2019-05-07T11:02:28.492Z,14.10
2019-05-07T11:04:55.268Z,14.30
2019-05-07T11:07:22.286Z,14.10
2019-05-07T11:09:49.176Z,14.30
2019-05-07T11:12:16.065Z,14.40
2019-05-07T11:14:42.884Z,14.80
2019-05-07T11:17:26.593Z,14.50
2019-05-07T11:19:53.581Z,14.20
2019-05-07T11:22:22.101Z,14.50
2019-05-07T11:24:49.021Z,14.60
2019-05-07T11:27:15.862Z,15.00
2019-05-07T11:29:43.032Z,15.00
2019-05-07T11:32:12.231Z,15.10
2019-05-07T11:34:42.242Z,15.30
2019-05-07T11:37:09.338Z,15.00
2019-05-07T11:39:36.167Z,15.20
2019-05-07T11:42:21.937Z,15.50
2019-05-07T11:44:49.301Z,15.30
2019-05-07T11:47:22.524Z,14.90
2019-05-07T11:50:08.153Z,15.50
2019-05-07T11:52:36.848Z,15.80
2019-05-07T11:55:05.373Z,16.10
2019-05-07T11:57:32.247Z,15.80
2019-05-07T11:59:59.138Z,16.00
2019-05-07T12:02:25.940Z,16.10
2019-05-07T12:04:52.839Z,16.50
2019-05-07T12:07:19.692Z,16.40
2019-05-07T12:09:46.528Z,16.00
2019-05-07T12:12:13.463Z,15.30
2019-05-07T12:14:40.246Z,15.00
2019-05-07T12:17:07.222Z,14.70
2019-05-07T12:19:34.243Z,15.10
2019-05-07T12:22:02.727Z,15.50
2019-05-07T12:24:29.883Z,15.70
2019-05-07T12:26:56.816Z,16.00
2019-05-07T12:29:23.691Z,16.70
2019-05-07T12:31:55.770Z,16.50
2019-05-07T12:34:24.571Z,16.80
2019-05-07T12:36:52.424Z,16.70
2019-05-07T12:39:21.573Z,16.50
2019-05-07T12:41:48.346Z,16.80
2019-05-07T12:44:15.226Z,16.40
2019-05-07T12:46:42.442Z,16.40
2019-05-07T12:49:11.753Z,16.40
2019-05-07T12:51:40.008Z,16.50
2019-05-07T12:54:08.798Z,16.20
2019-05-07T12:56:35.717Z,16.50
2019-05-07T12:59:02.617Z,16.70
2019-05-07T13:01:32.804Z,16.70
2019-05-07T13:04:02.696Z,16.40
2019-05-07T13:06:29.621Z,16.40
2019-05-07T13:08:56.509Z,16.90
2019-05-07T13:11:23.321Z,17.00
2019-05-07T13:13:50.204Z,16.30
2019-05-07T13:16:17.157Z,16.10
2019-05-07T13:18:43.944Z,16.40
2019-05-07T13:21:11.921Z,16.40
2019-05-07T13:23:38.998Z,16.50
2019-05-07T13:26:05.896Z,16.10
2019-05-07T13:28:34.089Z,16.50
2019-05-07T13:31:02.379Z,16.70
2019-05-07T13:33:32.013Z,17.00
2019-05-07T13:36:02.185Z,17.30
2019-05-07T13:38:32.318Z,17.10
2019-05-07T13:41:02.129Z,16.70
2019-05-07T13:43:31.149Z,16.90
2019-05-07T13:46:05.589Z,16.90
2019-05-07T13:48:33.325Z,16.70
2019-05-07T13:51:01.805Z,16.70
2019-05-07T13:53:28.800Z,16.40
2019-05-07T13:55:55.685Z,16.00
2019-05-07T13:58:23.085Z,16.10
2019-05-07T14:00:52.036Z,16.30
2019-05-07T14:03:18.866Z,16.40
2019-05-07T14:05:45.791Z,16.40
2019-05-07T14:08:14.210Z,15.90
2019-05-07T14:10:42.517Z,16.20
2019-05-07T14:13:15.013Z,16.20
2019-05-07T14:15:40.009Z,16.30
2019-05-07T14:18:07.202Z,16.20
2019-05-07T14:20:34.025Z,16.00
2019-05-07T14:23:02.596Z,15.40
2019-05-07T14:25:29.433Z,15.50
2019-05-07T14:27:58.751Z,15.60
2019-05-07T14:30:25.242Z,15.70
2019-05-07T14:32:53.904Z,16.10
2019-05-07T14:35:28.153Z,16.30
2019-05-07T14:38:02.461Z,15.90
2019-05-07T14:40:29.384Z,15.50
2019-05-07T14:43:03.866Z,15.40
2019-05-07T14:45:32.637Z,15.40
2019-05-07T14:47:59.442Z,15.20
2019-05-07T14:50:26.272Z,15.30
2019-05-07T14:52:55.115Z,15.50
2019-05-07T14:55:22.250Z,15.60
2019-05-07T14:57:49.195Z,15.70
2019-05-07T15:00:18.652Z,15.70
2019-05-07T15:02:45.484Z,15.80
2019-05-07T15:05:12.324Z,15.80
2019-05-07T15:07:39.420Z,15.50
2019-05-07T15:10:06.866Z,15.50
2019-05-07T15:12:33.643Z,15.20
2019-05-07T15:15:02.172Z,15.30
2019-05-07T15:17:32.574Z,15.00
2019-05-07T15:19:59.536Z,15.10
2019-05-07T15:22:28.216Z,15.30
2019-05-07T15:24:55.859Z,15.40
2019-05-07T15:27:23.508Z,15.40
2019-05-07T15:29:52.300Z,15.20
2019-05-07T15:32:18.970Z,15.30
2019-05-07T15:34:45.805Z,14.70
2019-05-07T15:37:12.588Z,14.50
2019-05-07T15:39:39.421Z,14.50
2019-05-07T15:42:06.203Z,14.60
2019-05-07T15:44:33.040Z,14.30
2019-05-07T15:47:02.565Z,14.40
2019-05-07T15:49:29.652Z,14.40
2019-05-07T15:51:58.284Z,14.40
2019-05-07T15:54:25.105Z,14.20
2019-05-07T15:56:54.641Z,14.20
2019-05-07T15:59:22.381Z,14.20
2019-05-07T16:01:52.198Z,14.20
2019-05-07T16:04:22.513Z,14.20
2019-05-07T16:06:47.624Z,14.30
2019-05-07T16:09:14.472Z,14.20
2019-05-07T16:11:43.064Z,14.10
2019-05-07T16:14:12.420Z,13.90
2019-05-07T16:16:44.914Z,13.90
2019-05-07T16:19:13.570Z,13.90
2019-05-07T16:21:42.387Z,13.90
2019-05-07T16:24:09.001Z,13.90
2019-05-07T16:26:35.784Z,13.80
2019-05-07T16:29:04.733Z,13.70
2019-05-07T16:31:33.205Z,13.70
2019-05-07T16:34:00.087Z,13.50
2019-05-07T16:36:26.919Z,13.50
2019-05-07T16:38:53.750Z,13.40
2019-05-07T16:41:22.322Z,13.10
2019-05-07T16:43:49.179Z,13.20
2019-05-07T16:46:16.000Z,13.30
2019-05-07T16:48:43.889Z,13.30
2019-05-07T16:51:12.676Z,13.30
2019-05-07T16:53:41.965Z,13.40
2019-05-07T16:56:08.162Z,13.40
2019-05-07T16:58:39.301Z,13.30
2019-05-07T17:01:07.957Z,13.20
2019-05-07T17:03:36.557Z,13.10
2019-05-07T17:06:03.421Z,13.10
2019-05-07T17:08:32.081Z,13.10
2019-05-07T17:10:58.910Z,13.00
2019-05-07T17:13:25.732Z,12.90
2019-05-07T17:15:56.332Z,12.90
2019-05-07T17:18:27.367Z,12.90
2019-05-07T17:20:55.155Z,12.90
2019-05-07T17:23:22.636Z,12.90
2019-05-07T17:25:52.420Z,12.90
2019-05-07T17:28:18.851Z,12.90
2019-05-07T17:30:45.867Z,13.00
2019-05-07T17:33:12.948Z,12.90
2019-05-07T17:35:42.161Z,12.90
2019-05-07T17:38:09.979Z,12.70
2019-05-07T17:40:42.368Z,12.70
2019-05-07T17:43:09.325Z,12.60
2019-05-07T17:45:36.386Z,12.60
2019-05-07T17:48:03.942Z,12.50
2019-05-07T17:50:45.129Z,12.40
2019-05-07T17:53:12.083Z,12.30
2019-05-07T17:55:38.997Z,12.20
2019-05-07T17:58:05.832Z,12.20
2019-05-07T18:00:32.978Z,12.20
2019-05-07T18:03:10.683Z,12.10
2019-05-07T18:05:37.461Z,12.00
2019-05-07T18:08:04.408Z,12.00
2019-05-07T18:10:31.894Z,11.90
2019-05-07T18:12:59.677Z,11.80
2019-05-07T18:15:26.516Z,11.70
2019-05-07T18:18:12.864Z,11.60
2019-05-07T18:20:42.076Z,11.60
2019-05-07T18:23:10.665Z,11.60
2019-05-07T18:25:37.225Z,11.50
2019-05-07T18:28:04.060Z,11.40
2019-05-07T18:30:32.667Z,11.40
2019-05-07T18:33:13.449Z,11.40
2019-05-07T18:35:40.284Z,11.30
2019-05-07T18:38:07.112Z,11.20
2019-05-07T18:40:33.949Z,11.20
2019-05-07T18:43:02.965Z,11.20
2019-05-07T18:45:29.518Z,11.10
2019-05-07T18:47:56.831Z,11.10
2019-05-07T18:50:23.692Z,11.00
2019-05-07T18:52:52.234Z,11.00
2019-05-07T18:55:19.784Z,10.90
2019-05-07T18:57:46.792Z,10.70
2019-05-07T19:00:27.280Z,10.70
2019-05-07T19:02:54.053Z,10.70
2019-05-07T19:05:22.287Z,10.50
2019-05-07T19:08:02.362Z,10.30
2019-05-07T19:10:18.870Z,10.20
2019-05-07T19:12:46.906Z,10.10
2019-05-07T19:15:14.001Z,9.90
2019-05-07T19:17:42.741Z,9.90
2019-05-07T19:20:16.121Z,9.90
2019-05-07T19:22:43.181Z,9.80
2019-05-07T19:25:11.966Z,9.90
2019-05-07T19:27:41.941Z,9.80
2019-05-07T19:30:12.541Z,9.80
2019-05-07T19:32:39.653Z,9.80
2019-05-07T19:35:06.589Z,9.70
2019-05-07T19:37:34.342Z,9.50
2019-05-07T19:40:03.939Z,9.50
2019-05-07T19:42:36.375Z,9.50
2019-05-07T19:45:04.863Z,9.50
2019-05-07T19:47:32.713Z,9.60
2019-05-07T19:50:01.989Z,9.50
2019-05-07T19:52:28.843Z,9.40
2019-05-07T19:55:01.243Z,9.40
2019-05-07T19:57:33.148Z,9.40
2019-05-07T20:00:00.303Z,9.40
2019-05-07T20:02:28.971Z,9.50
2019-05-07T20:04:55.814Z,9.60
2019-05-07T20:07:22.618Z,9.40
2019-05-07T20:09:49.469Z,9.30
2019-05-07T20:12:16.253Z,9.20
2019-05-07T20:14:43.090Z,9.30
2019-05-07T20:17:12.126Z,9.30
2019-05-07T20:19:38.901Z,9.00
2019-05-07T20:22:05.681Z,8.90
2019-05-07T20:24:33.953Z,8.70
2019-05-07T20:27:02.879Z,8.80
2019-05-07T20:29:29.444Z,8.80
2019-05-07T20:31:56.305Z,8.80
2019-05-07T20:34:23.855Z,8.70
2019-05-07T20:36:52.010Z,8.60
2019-05-07T20:39:18.850Z,8.50
2019-05-07T20:41:45.753Z,8.30
2019-05-07T20:44:12.870Z,8.20
2019-05-07T20:46:41.983Z,8.20
2019-05-07T20:49:08.299Z,8.30
2019-05-07T20:51:35.138Z,8.20
2019-05-07T20:54:12.978Z,8.20
2019-05-07T20:56:46.611Z,8.10
2019-05-07T20:59:13.136Z,8.20
2019-05-07T21:01:41.839Z,8.20
2019-05-07T21:04:08.578Z,8.20
2019-05-07T21:06:35.432Z,8.30
2019-05-07T21:09:02.216Z,8.20
2019-05-07T21:11:29.031Z,8.20
2019-05-07T21:13:55.896Z,8.10
2019-05-07T21:16:22.678Z,7.90
2019-05-07T21:18:49.530Z,7.90
2019-05-07T21:21:16.297Z,7.80
2019-05-07T21:23:43.551Z,7.80
2019-05-07T21:26:12.833Z,7.80
2019-05-07T21:28:43.158Z,7.60
2019-05-07T21:31:11.820Z,7.50
2019-05-07T21:33:38.404Z,7.40
2019-05-07T21:36:05.225Z,7.30
2019-05-07T21:38:32.903Z,7.40
2019-05-07T21:40:59.977Z,7.40
2019-05-07T21:43:26.809Z,7.30
2019-05-07T21:45:53.588Z,7.30
2019-05-07T21:48:22.324Z,7.40
2019-05-07T21:50:49.001Z,7.30
2019-05-07T21:53:23.613Z,7.20
2019-05-07T21:55:59.846Z,7.10
2019-05-07T21:58:37.756Z,7.10
2019-05-07T22:01:21.987Z,6.90
2019-05-07T22:03:52.381Z,6.90
2019-05-07T22:06:19.389Z,6.90
2019-05-07T22:08:46.668Z,7.00
2019-05-07T22:11:13.520Z,6.90
2019-05-07T22:13:40.296Z,6.90
2019-05-07T22:16:07.136Z,6.80
2019-05-07T22:18:34.081Z,6.70
2019-05-07T22:21:02.940Z,6.70
2019-05-07T22:23:32.148Z,6.80
2019-05-07T22:25:58.208Z,6.80
2019-05-07T22:28:25.057Z,6.70
2019-05-07T22:30:53.648Z,6.70
2019-05-07T22:33:22.802Z,6.70
2019-05-07T22:35:49.581Z,6.70
2019-05-07T22:38:16.428Z,6.60
2019-05-07T22:40:43.450Z,6.50
2019-05-07T22:43:12.537Z,6.60
2019-05-07T22:45:39.252Z,6.60
2019-05-07T22:48:06.496Z,6.60
2019-05-07T22:50:33.336Z,6.40
2019-05-07T22:53:01.976Z,6.30
2019-05-07T22:55:28.778Z,6.30
2019-05-07T22:58:09.014Z,6.30
2019-05-07T23:00:42.675Z,6.30
2019-05-07T23:03:12.191Z,6.30
2019-05-07T23:05:38.428Z,6.40
2019-05-07T23:08:05.315Z,6.50
2019-05-07T23:10:33.241Z,6.40
2019-05-07T23:13:02.320Z,6.40
2019-05-07T23:15:29.001Z,6.50
2019-05-07T23:17:55.796Z,6.50
2019-05-07T23:20:24.424Z,6.70
2019-05-07T23:22:52.027Z,6.70
2019-05-07T23:25:18.985Z,6.50
2019-05-07T23:27:45.832Z,6.30
2019-05-07T23:30:13.119Z,6.10
2019-05-07T23:32:39.952Z,6.10
2019-05-07T23:35:06.800Z,6.10
2019-05-07T23:37:33.683Z,6.10
2019-05-07T23:40:14.494Z,6.10
2019-05-07T23:42:52.225Z,6.20
2019-05-07T23:45:19.118Z,6.30
2019-05-07T23:47:45.956Z,6.20
2019-05-07T23:50:12.741Z,6.20
2019-05-07T23:52:39.590Z,6.20
2019-05-07T23:55:06.436Z,6.30
2019-05-07T23:57:33.220Z,6.30
